createdAt,value
2022-07-25T00:02:02.838Z,76.43
2022-07-25T00:04:31.405Z,76.17
2022-07-25T00:06:59.442Z,75.97
2022-07-25T00:09:27.458Z,76.39
2022-07-25T00:11:55.435Z,76.86
2022-07-25T00:14:23.114Z,77.04
2022-07-25T00:16:52.848Z,77.30
2022-07-25T00:19:20.692Z,77.56
2022-07-25T00:21:48.732Z,77.51
2022-07-25T00:24:16.380Z,77.60
2022-07-25T00:26:44.483Z,77.76
2022-07-25T00:29:12.247Z,77.69
2022-07-25T00:31:40.450Z,77.94
2022-07-25T00:34:09.934Z,78.20
2022-07-25T00:36:38.566Z,77.86
2022-07-25T00:39:06.282Z,77.61
2022-07-25T00:41:34.297Z,77.50
2022-07-25T00:44:02.017Z,77.72
2022-07-25T00:46:30.067Z,78.20
2022-07-25T00:48:59.130Z,78.34
2022-07-25T00:51:28.673Z,78.37
2022-07-25T00:53:58.390Z,78.74
2022-07-25T00:56:26.418Z,78.61
2022-07-25T00:58:54.070Z,78.50
2022-07-25T01:01:22.244Z,78.53
2022-07-25T01:03:49.966Z,78.61
2022-07-25T01:06:18.569Z,78.57
2022-07-25T01:08:48.021Z,78.65
2022-07-25T01:11:17.060Z,78.73
2022-07-25T01:13:44.716Z,78.70
2022-07-25T01:16:12.973Z,78.87
2022-07-25T01:18:40.760Z,79.11
2022-07-25T01:21:10.242Z,79.47
2022-07-25T01:23:37.991Z,79.58
2022-07-25T01:26:06.132Z,79.41
2022-07-25T01:28:33.869Z,79.28
2022-07-25T01:31:02.146Z,79.64
2022-07-25T01:33:29.829Z,79.85
2022-07-25T01:35:58.107Z,80.19
2022-07-25T01:38:27.347Z,80.52
2022-07-25T01:40:55.526Z,80.67
2022-07-25T01:43:23.182Z,80.39
2022-07-25T01:45:51.735Z,80.15
2022-07-25T01:48:19.966Z,79.86
2022-07-25T01:50:48.210Z,79.73
2022-07-25T01:53:16.751Z,79.45
2022-07-25T01:55:47.627Z,79.49
2022-07-25T01:58:15.299Z,79.45
2022-07-25T02:00:43.365Z,79.91
2022-07-25T02:03:28.918Z,80.03
2022-07-25T02:05:56.794Z,81.13
2022-07-25T02:08:24.473Z,83.47
2022-07-25T02:10:54.151Z,83.10
2022-07-25T02:13:22.343Z,82.91
2022-07-25T02:15:51.152Z,83.23
2022-07-25T02:18:19.256Z,82.86
2022-07-25T02:20:47.565Z,83.24
2022-07-25T02:23:15.245Z,82.98
2022-07-25T02:25:43.420Z,83.71
2022-07-25T02:28:13.202Z,83.51
2022-07-25T02:30:40.951Z,83.31
2022-07-25T02:33:08.728Z,83.51
2022-07-25T02:35:36.608Z,83.17
2022-07-25T02:38:04.750Z,85.36
2022-07-25T02:40:32.499Z,85.43
2022-07-25T02:43:00.174Z,85.45
2022-07-25T02:45:29.171Z,86.23
2022-07-25T02:47:57.518Z,85.17
2022-07-25T02:50:25.168Z,84.86
2022-07-25T02:52:53.146Z,85.13
2022-07-25T02:55:20.901Z,84.62
2022-07-25T02:57:48.579Z,84.33
2022-07-25T03:00:17.606Z,84.21
2022-07-25T03:02:47.792Z,84.32
2022-07-25T03:05:17.468Z,84.14
2022-07-25T03:07:46.444Z,84.69
2022-07-25T03:10:15.245Z,84.47
2022-07-25T03:12:45.038Z,84.18
2022-07-25T03:15:13.956Z,84.32
2022-07-25T03:17:42.119Z,84.33
2022-07-25T03:20:11.792Z,84.42
2022-07-25T03:22:40.066Z,84.68
2022-07-25T03:25:15.950Z,85.04
2022-07-25T03:27:50.676Z,85.45
2022-07-25T03:30:18.458Z,84.98
2022-07-25T03:32:46.964Z,84.51
2022-07-25T03:35:16.468Z,84.67
2022-07-25T03:37:44.219Z,84.86
2022-07-25T03:40:13.106Z,84.64
2022-07-25T03:42:42.006Z,84.56
2022-07-25T03:45:10.924Z,84.73
2022-07-25T03:47:38.982Z,84.63
2022-07-25T03:50:07.178Z,84.51
2022-07-25T03:52:38.683Z,84.44
2022-07-25T03:55:07.540Z,84.56
2022-07-25T03:57:35.703Z,84.49
2022-07-25T04:00:03.680Z,84.36
2022-07-25T04:02:33.632Z,84.26
2022-07-25T04:05:01.327Z,84.40
2022-07-25T04:07:29.029Z,84.37
2022-07-25T04:09:58.070Z,84.17
2022-07-25T04:12:25.790Z,84.23
2022-07-25T04:14:53.735Z,84.17
2022-07-25T04:17:21.460Z,83.54
2022-07-25T04:19:49.846Z,83.13
2022-07-25T04:22:17.553Z,82.63
2022-07-25T04:24:45.679Z,83.26
2022-07-25T04:27:14.743Z,83.42
2022-07-25T04:29:43.201Z,82.75
2022-07-25T04:32:10.918Z,83.17
2022-07-25T04:34:38.938Z,83.36
2022-07-25T04:37:06.759Z,82.99
2022-07-25T04:39:35.010Z,82.85
2022-07-25T04:42:02.699Z,82.52
2022-07-25T04:44:32.226Z,82.79
2022-07-25T04:46:59.858Z,82.60
2022-07-25T04:49:27.968Z,82.64
2022-07-25T04:51:55.614Z,82.80
2022-07-25T04:54:23.309Z,82.40
2022-07-25T04:56:50.959Z,82.35
2022-07-25T04:59:19.051Z,82.03
2022-07-25T05:01:48.323Z,82.05
2022-07-25T05:04:15.993Z,82.02
2022-07-25T05:06:43.703Z,81.64
2022-07-25T05:09:11.872Z,81.99
2022-07-25T05:11:43.683Z,82.45
2022-07-25T05:14:14.717Z,82.83
2022-07-25T05:16:42.539Z,83.00
2022-07-25T05:19:12.051Z,82.20
2022-07-25T05:21:39.710Z,82.32
2022-07-25T05:24:08.583Z,81.77
2022-07-25T05:26:36.611Z,81.43
2022-07-25T05:29:04.817Z,81.40
2022-07-25T05:31:32.524Z,81.02
2022-07-25T05:34:00.355Z,80.41
2022-07-25T05:36:29.485Z,80.07
2022-07-25T05:38:57.692Z,79.62
2022-07-25T05:41:25.418Z,78.86
2022-07-25T05:43:53.183Z,79.09
2022-07-25T05:46:21.623Z,79.28
2022-07-25T05:48:49.431Z,78.95
2022-07-25T05:51:17.094Z,78.10
2022-07-25T05:53:46.188Z,77.92
2022-07-25T05:56:14.131Z,77.31
2022-07-25T05:58:42.365Z,76.78
2022-07-25T06:01:13.650Z,76.46
2022-07-25T06:03:41.505Z,76.22
2022-07-25T06:06:09.781Z,75.61
2022-07-25T06:08:37.634Z,75.23
2022-07-25T06:11:08.315Z,74.59
2022-07-25T06:13:37.235Z,74.38
2022-07-25T06:16:06.462Z,73.71
2022-07-25T06:18:34.189Z,73.86
2022-07-25T06:21:02.175Z,73.87
2022-07-25T06:23:29.835Z,73.06
2022-07-25T06:25:58.458Z,72.51
2022-07-25T06:28:27.493Z,72.33
2022-07-25T06:30:56.654Z,72.43
2022-07-25T06:33:24.331Z,72.29
2022-07-25T06:35:52.094Z,71.90
2022-07-25T06:38:19.767Z,71.40
2022-07-25T06:40:47.965Z,70.88
2022-07-25T06:43:15.625Z,70.43
2022-07-25T06:45:47.499Z,69.33
2022-07-25T06:48:15.411Z,68.54
2022-07-25T06:50:43.143Z,68.11
2022-07-25T06:53:10.840Z,67.52
2022-07-25T06:55:38.592Z,67.32
2022-07-25T06:58:06.318Z,66.26
2022-07-25T07:00:34.457Z,65.71
2022-07-25T07:03:04.215Z,66.53
2022-07-25T07:05:33.879Z,65.30
2022-07-25T07:08:02.061Z,65.79
2022-07-25T07:10:29.900Z,65.37
2022-07-25T07:13:07.684Z,65.24
2022-07-25T07:15:36.100Z,65.12
2022-07-25T07:18:05.531Z,64.95
2022-07-25T07:20:33.294Z,64.91
2022-07-25T07:23:00.939Z,64.13
2022-07-25T07:25:30.736Z,65.50
2022-07-25T07:27:59.060Z,65.31
2022-07-25T07:30:58.463Z,63.76
2022-07-25T07:33:16.912Z,62.46
2022-07-25T07:35:45.075Z,62.91
2022-07-25T07:38:12.988Z,61.92
2022-07-25T07:40:40.689Z,60.86
2022-07-25T07:43:08.415Z,60.63
2022-07-25T07:45:36.168Z,59.97
2022-07-25T07:48:03.890Z,59.45
2022-07-25T07:50:33.565Z,59.79
2022-07-25T07:53:01.449Z,59.68
2022-07-25T07:55:49.228Z,59.92
2022-07-25T07:58:19.071Z,60.25
2022-07-25T08:00:48.423Z,59.51
2022-07-25T08:03:20.682Z,58.82
2022-07-25T08:05:52.096Z,58.27
2022-07-25T08:08:19.871Z,58.22
2022-07-25T08:10:49.461Z,56.81
2022-07-25T08:13:19.043Z,55.80
2022-07-25T08:15:48.841Z,55.84
2022-07-25T08:18:18.010Z,55.38
2022-07-25T08:20:46.770Z,55.07
2022-07-25T08:23:16.189Z,53.64
2022-07-25T08:25:45.158Z,53.79
2022-07-25T08:28:13.677Z,52.91
2022-07-25T08:30:42.742Z,51.94
2022-07-25T08:33:13.227Z,52.53
2022-07-25T08:35:41.944Z,53.00
2022-07-25T08:38:11.523Z,51.82
2022-07-25T08:40:40.687Z,53.23
2022-07-25T08:43:12.807Z,51.90
2022-07-25T08:45:45.795Z,52.76
2022-07-25T08:48:14.000Z,51.91
2022-07-25T08:50:42.104Z,51.53
2022-07-25T08:53:32.033Z,50.76
2022-07-25T08:56:00.166Z,51.59
2022-07-25T08:58:27.836Z,52.23
2022-07-25T09:00:55.824Z,52.03
2022-07-25T09:03:23.508Z,51.28
2022-07-25T09:05:52.530Z,51.29
2022-07-25T09:08:20.149Z,50.90
2022-07-25T09:10:50.085Z,51.27
2022-07-25T09:13:20.535Z,51.07
2022-07-25T09:15:50.939Z,50.35
2022-07-25T09:18:23.127Z,50.36
2022-07-25T09:20:53.231Z,49.80
2022-07-25T09:23:29.765Z,49.82
2022-07-25T09:26:03.431Z,50.05
2022-07-25T09:28:32.740Z,49.04
2022-07-25T09:31:02.423Z,50.04
2022-07-25T09:33:30.701Z,48.22
2022-07-25T09:35:58.737Z,48.03
2022-07-25T09:38:27.287Z,47.86
2022-07-25T09:40:57.015Z,48.31
2022-07-25T09:43:35.947Z,46.27
2022-07-25T09:46:05.487Z,48.08
2022-07-25T09:48:33.326Z,46.18
2022-07-25T09:51:01.519Z,47.29
2022-07-25T09:53:29.897Z,45.57
2022-07-25T09:55:57.841Z,43.55
2022-07-25T09:58:26.574Z,44.42
2022-07-25T10:01:01.735Z,44.42
2022-07-25T10:03:44.606Z,44.84
2022-07-25T10:06:21.337Z,45.46
2022-07-25T10:08:50.383Z,45.82
2022-07-25T10:11:23.924Z,43.93
2022-07-25T10:13:52.451Z,43.57
2022-07-25T10:16:21.583Z,43.96
2022-07-25T10:18:53.851Z,42.43
2022-07-25T10:21:27.958Z,43.46
2022-07-25T10:24:01.294Z,42.22
2022-07-25T10:26:29.297Z,41.80
2022-07-25T10:28:57.367Z,42.42
2022-07-25T10:31:27.801Z,40.83
2022-07-25T10:33:58.846Z,41.80
2022-07-25T10:36:30.159Z,41.58
2022-07-25T10:39:00.533Z,41.38
2022-07-25T10:41:29.892Z,41.53
2022-07-25T10:44:01.909Z,41.42
2022-07-25T10:46:32.478Z,41.33
2022-07-25T10:49:07.237Z,39.82
2022-07-25T10:51:41.476Z,41.00
2022-07-25T10:54:15.169Z,39.23
2022-07-25T10:56:53.499Z,39.12
2022-07-25T10:59:29.058Z,38.87
2022-07-25T11:01:57.013Z,39.49
2022-07-25T11:04:26.209Z,37.36
2022-07-25T11:06:53.964Z,38.00
2022-07-25T11:09:27.352Z,39.46
2022-07-25T11:11:57.215Z,39.80
2022-07-25T11:14:31.157Z,39.34
2022-07-25T11:16:59.203Z,39.29
2022-07-25T11:19:30.556Z,37.41
2022-07-25T11:22:00.143Z,35.90
2022-07-25T11:24:36.848Z,36.03
2022-07-25T11:27:08.474Z,35.75
2022-07-25T11:29:40.492Z,35.95
2022-07-25T11:32:11.941Z,36.70
2022-07-25T11:34:44.262Z,37.67
2022-07-25T11:37:14.407Z,38.11
2022-07-25T11:39:45.504Z,36.70
2022-07-25T11:42:16.318Z,36.37
2022-07-25T11:44:47.829Z,36.89
2022-07-25T11:47:27.531Z,36.01
2022-07-25T11:49:59.396Z,35.82
2022-07-25T11:52:29.826Z,35.30
2022-07-25T11:54:59.576Z,36.35
2022-07-25T11:57:29.439Z,36.67
2022-07-25T11:59:57.839Z,37.45
2022-07-25T12:02:27.447Z,37.21
2022-07-25T12:04:58.986Z,37.51
2022-07-25T12:07:41.363Z,36.68
2022-07-25T12:10:11.666Z,37.02
2022-07-25T12:12:44.674Z,36.28
2022-07-25T12:15:13.905Z,36.51
2022-07-25T12:17:43.194Z,37.32
2022-07-25T12:20:17.514Z,37.16
2022-07-25T12:22:45.677Z,37.21
2022-07-25T12:25:13.928Z,37.03
2022-07-25T12:27:41.708Z,37.88
2022-07-25T12:30:11.999Z,37.90
2022-07-25T12:32:40.216Z,37.98
2022-07-25T12:35:09.863Z,37.34
2022-07-25T12:37:39.246Z,37.11
2022-07-25T12:40:08.148Z,38.11
2022-07-25T12:42:35.967Z,37.42
2022-07-25T12:45:04.380Z,37.18
2022-07-25T12:47:32.363Z,37.19
2022-07-25T12:50:00.014Z,38.71
2022-07-25T12:52:27.905Z,37.25
2022-07-25T12:54:57.502Z,37.46
2022-07-25T12:57:25.600Z,35.76
2022-07-25T12:59:53.343Z,37.46
2022-07-25T13:02:21.002Z,37.97
2022-07-25T13:04:48.986Z,37.39
2022-07-25T13:07:17.375Z,36.33
2022-07-25T13:12:35.428Z,36.58
2022-07-25T13:15:03.766Z,35.97
2022-07-25T13:17:32.461Z,36.14
2022-07-25T13:20:00.501Z,37.93
2022-07-25T13:22:28.804Z,37.67
2022-07-25T13:24:57.135Z,37.42
2022-07-25T13:27:24.801Z,37.31
2022-07-25T13:29:55.082Z,36.68
2022-07-25T13:32:22.943Z,35.52
2022-07-25T13:34:51.085Z,36.35
2022-07-25T13:37:18.887Z,37.59
2022-07-25T13:39:47.196Z,36.47
2022-07-25T13:42:14.838Z,36.28
2022-07-25T13:44:42.673Z,37.01
2022-07-25T13:47:11.758Z,36.71
2022-07-25T13:49:40.623Z,36.63
2022-07-25T13:52:08.328Z,35.42
2022-07-25T13:54:36.014Z,36.75
2022-07-25T13:57:04.344Z,36.92
2022-07-25T13:59:32.057Z,36.30
2022-07-25T14:01:59.840Z,36.24
2022-07-25T14:04:29.110Z,34.85
2022-07-25T14:06:58.312Z,34.93
2022-07-25T14:09:26.280Z,34.77
2022-07-25T14:11:54.002Z,34.90
2022-07-25T14:14:21.973Z,35.95
2022-07-25T14:16:49.849Z,33.96
2022-07-25T14:19:18.591Z,35.84
2022-07-25T14:21:47.723Z,33.31
2022-07-25T14:24:15.564Z,35.54
2022-07-25T14:26:43.199Z,34.91
2022-07-25T14:29:12.200Z,34.53
2022-07-25T14:31:40.898Z,35.29
2022-07-25T14:34:09.096Z,34.55
2022-07-25T14:36:37.073Z,35.06
2022-07-25T14:39:06.752Z,35.04
2022-07-25T14:41:35.199Z,34.99
2022-07-25T14:44:02.849Z,34.86
2022-07-25T14:46:31.270Z,34.84
2022-07-25T14:48:59.401Z,34.63
2022-07-25T14:51:28.562Z,35.21
2022-07-25T14:53:56.173Z,34.80
2022-07-25T14:56:25.617Z,35.02
2022-07-25T14:58:53.274Z,34.50
2022-07-25T15:01:24.299Z,34.81
2022-07-25T15:03:52.115Z,34.37
2022-07-25T15:06:19.931Z,34.63
2022-07-25T15:08:47.551Z,34.81
2022-07-25T15:11:15.176Z,34.00
2022-07-25T15:13:44.444Z,34.30
2022-07-25T15:16:13.772Z,34.40
2022-07-25T15:19:05.326Z,34.94
2022-07-25T15:21:29.086Z,34.99
2022-07-25T15:23:57.414Z,34.06
2022-07-25T15:26:25.103Z,34.53
2022-07-25T15:28:54.555Z,34.38
2022-07-25T15:31:24.281Z,34.34
2022-07-25T15:33:54.311Z,34.18
2022-07-25T15:36:25.811Z,35.20
2022-07-25T15:38:56.950Z,35.99
2022-07-25T15:41:24.592Z,34.57
2022-07-25T15:43:52.262Z,35.44
2022-07-25T15:46:21.472Z,34.98
2022-07-25T15:48:49.744Z,35.25
2022-07-25T15:51:17.779Z,35.84
2022-07-25T15:53:46.054Z,35.33
2022-07-25T15:56:15.855Z,35.01
2022-07-25T15:58:44.071Z,35.52
2022-07-25T16:01:12.277Z,36.08
2022-07-25T16:03:41.382Z,35.88
2022-07-25T16:06:09.120Z,36.29
2022-07-25T16:08:37.169Z,36.27
2022-07-25T16:11:05.784Z,36.58
2022-07-25T16:13:33.466Z,36.77
2022-07-25T16:16:01.151Z,37.28
2022-07-25T16:18:28.857Z,36.75
2022-07-25T16:20:58.243Z,37.01
2022-07-25T16:23:28.057Z,37.34
2022-07-25T16:25:56.251Z,36.34
2022-07-25T16:28:23.928Z,37.18
2022-07-25T16:30:52.451Z,37.38
2022-07-25T16:33:20.139Z,36.88
2022-07-25T16:35:48.241Z,37.11
2022-07-25T16:38:17.807Z,37.12
2022-07-25T16:40:45.884Z,37.57
2022-07-25T16:43:13.498Z,37.31
2022-07-25T16:45:43.502Z,38.02
2022-07-25T16:48:11.690Z,37.55
2022-07-25T16:50:39.559Z,37.60
2022-07-25T16:53:07.498Z,38.14
2022-07-25T16:55:36.777Z,38.90
2022-07-25T16:58:04.455Z,38.24
2022-07-25T17:00:32.129Z,39.19
2022-07-25T17:03:00.444Z,39.05
2022-07-25T17:05:28.112Z,38.58
2022-07-25T17:07:59.579Z,38.00
2022-07-25T17:10:27.706Z,38.68
2022-07-25T17:12:57.506Z,38.91
2022-07-25T17:15:25.210Z,38.19
2022-07-25T17:17:53.479Z,37.73
2022-07-25T17:20:21.164Z,37.55
2022-07-25T17:22:49.100Z,38.39
2022-07-25T17:25:16.716Z,39.02
2022-07-25T17:27:45.234Z,38.02
2022-07-25T17:30:14.635Z,37.88
2022-07-25T17:32:42.957Z,38.27
2022-07-25T17:35:10.745Z,39.26
2022-07-25T17:37:38.889Z,38.96
2022-07-25T17:40:07.626Z,38.93
2022-07-25T17:42:35.594Z,38.42
2022-07-25T17:45:06.850Z,39.60
2022-07-25T17:47:35.988Z,39.46
2022-07-25T17:50:04.492Z,39.48
2022-07-25T17:52:32.430Z,39.30
2022-07-25T17:55:00.111Z,39.71
2022-07-25T17:57:28.354Z,39.72
2022-07-25T17:59:56.002Z,40.68
2022-07-25T18:02:24.254Z,40.67
2022-07-25T18:04:54.681Z,40.99
2022-07-25T18:07:23.172Z,41.54
2022-07-25T18:09:50.786Z,41.43
2022-07-25T18:12:18.408Z,42.82
2022-07-25T18:14:46.080Z,43.00
2022-07-25T18:17:14.335Z,43.16
2022-07-25T18:19:41.953Z,44.08
2022-07-25T18:22:11.028Z,43.89
2022-07-25T18:24:38.653Z,44.51
2022-07-25T18:27:06.397Z,44.68
2022-07-25T18:29:37.020Z,44.68
2022-07-25T18:32:04.934Z,44.89
2022-07-25T18:34:32.787Z,45.00
2022-07-25T18:37:00.462Z,45.51
2022-07-25T18:39:29.516Z,46.15
2022-07-25T18:41:57.159Z,46.40
2022-07-25T18:44:24.861Z,46.61
2022-07-25T18:46:52.632Z,47.01
2022-07-25T18:49:21.241Z,47.16
2022-07-25T18:51:48.908Z,48.13
2022-07-25T18:54:17.019Z,48.74
2022-07-25T18:56:45.982Z,49.09
2022-07-25T18:59:14.468Z,49.21
2022-07-25T19:01:42.213Z,49.17
2022-07-25T19:04:10.306Z,49.59
2022-07-25T19:06:38.352Z,49.62
2022-07-25T19:09:06.049Z,49.86
2022-07-25T19:11:37.638Z,49.93
2022-07-25T19:14:10.924Z,50.73
2022-07-25T19:16:38.775Z,51.07
2022-07-25T19:19:06.972Z,50.88
2022-07-25T19:21:34.628Z,51.59
2022-07-25T19:24:02.600Z,52.27
2022-07-25T19:26:30.353Z,53.08
2022-07-25T19:28:58.678Z,53.00
2022-07-25T19:31:27.770Z,53.37
2022-07-25T19:33:56.373Z,50.77
2022-07-25T19:36:24.073Z,50.29
2022-07-25T19:38:52.037Z,50.18
2022-07-25T19:41:19.694Z,49.97
2022-07-25T19:43:47.407Z,50.91
2022-07-25T19:46:15.437Z,51.06
2022-07-25T19:48:44.722Z,53.57
2022-07-25T19:51:12.744Z,54.11
2022-07-25T19:53:40.512Z,55.46
2022-07-25T19:56:09.160Z,55.71
2022-07-25T19:58:39.098Z,56.24
2022-07-25T20:01:11.298Z,57.51
2022-07-25T20:03:39.026Z,57.22
2022-07-25T20:06:08.984Z,57.59
2022-07-25T20:08:39.275Z,58.38
2022-07-25T20:11:07.306Z,59.04
2022-07-25T20:13:35.542Z,59.94
2022-07-25T20:16:03.843Z,61.01
2022-07-25T20:18:32.671Z,61.60
2022-07-25T20:21:00.373Z,62.16
2022-07-25T20:23:30.140Z,63.00
2022-07-25T20:25:58.331Z,63.13
2022-07-25T20:28:26.088Z,62.44
2022-07-25T20:30:55.774Z,70.11
2022-07-25T20:33:26.949Z,83.85
2022-07-25T20:35:54.833Z,83.08
2022-07-25T20:38:22.804Z,84.32
2022-07-25T20:40:53.396Z,83.81
2022-07-25T20:43:21.735Z,85.49
2022-07-25T20:45:50.250Z,84.42
2022-07-25T20:48:18.249Z,83.63
2022-07-25T20:50:45.991Z,84.19
2022-07-25T20:53:13.709Z,84.16
2022-07-25T20:55:41.858Z,83.14
2022-07-25T20:58:10.879Z,83.72
2022-07-25T21:00:39.146Z,83.01
2022-07-25T21:03:08.050Z,82.55
2022-07-25T21:05:37.809Z,84.19
2022-07-25T21:08:06.163Z,84.92
2022-07-25T21:10:34.240Z,85.67
2022-07-25T21:13:02.295Z,85.67
2022-07-25T21:15:31.960Z,84.46
2022-07-25T21:17:59.821Z,85.36
2022-07-25T21:20:28.118Z,85.78
2022-07-25T21:22:56.250Z,85.32
2022-07-25T21:25:24.151Z,85.52
2022-07-25T21:27:51.811Z,85.55
2022-07-25T21:30:19.663Z,85.38
2022-07-25T21:32:48.719Z,85.87
2022-07-25T21:35:18.118Z,87.31
2022-07-25T21:37:46.059Z,87.31
2022-07-25T21:40:13.930Z,87.02
2022-07-25T21:42:43.446Z,88.16
2022-07-25T21:45:12.167Z,88.68
2022-07-25T21:47:39.873Z,88.84
2022-07-25T21:50:28.463Z,89.54
2022-07-25T21:52:56.433Z,89.04
2022-07-25T21:55:24.623Z,90.11
2022-07-25T21:57:52.838Z,89.86
2022-07-25T22:00:21.342Z,90.36
2022-07-25T22:02:49.451Z,89.90
2022-07-25T22:05:20.301Z,89.84
2022-07-25T22:07:48.961Z,89.33
2022-07-25T22:10:18.984Z,89.67
2022-07-25T22:12:47.726Z,88.85
2022-07-25T22:15:16.747Z,91.41
2022-07-25T22:17:49.724Z,89.02
2022-07-25T22:20:20.043Z,91.12
2022-07-25T22:22:47.953Z,90.39
2022-07-25T22:25:16.260Z,89.79
2022-07-25T22:27:44.099Z,89.78
2022-07-25T22:30:17.951Z,88.98
2022-07-25T22:32:46.457Z,90.93
2022-07-25T22:35:14.695Z,89.52
2022-07-25T22:37:43.873Z,90.53
2022-07-25T22:40:13.675Z,89.80
2022-07-25T22:42:41.809Z,89.81
2022-07-25T22:45:10.690Z,89.30
2022-07-25T22:47:39.347Z,88.73
2022-07-25T22:50:08.974Z,89.69
2022-07-25T22:52:36.955Z,89.96
2022-07-25T22:55:06.846Z,89.07
2022-07-25T22:57:37.095Z,88.43
2022-07-25T23:00:08.127Z,88.70
2022-07-25T23:02:35.929Z,88.51
2022-07-25T23:05:03.739Z,88.83
2022-07-25T23:07:32.122Z,88.41
2022-07-25T23:09:59.970Z,87.93
2022-07-25T23:12:29.442Z,87.57
2022-07-25T23:14:57.075Z,87.81
2022-07-25T23:17:25.335Z,87.87
2022-07-25T23:19:54.490Z,88.05
2022-07-25T23:22:23.654Z,88.15
2022-07-25T23:24:51.591Z,88.92
2022-07-25T23:27:19.504Z,88.42
2022-07-25T23:29:48.490Z,88.06
2022-07-25T23:32:16.557Z,87.65
2022-07-25T23:34:44.181Z,88.19
2022-07-25T23:37:12.229Z,88.06
2022-07-25T23:39:39.839Z,87.86
2022-07-25T23:42:07.655Z,88.42
2022-07-25T23:44:36.534Z,87.79
2022-07-25T23:47:10.138Z,87.81
2022-07-25T23:49:38.592Z,87.80
2022-07-25T23:52:06.623Z,87.45
2022-07-25T23:54:34.850Z,87.79
2022-07-25T23:57:03.371Z,88.11
2022-07-25T23:59:31.134Z,87.71
